sensor_id;sensor_type;location;lat;lon;timestamp;P1;durP1;ratioP1;P2;durP2;ratioP2
5414;SDS011;2730;51.512;7.504;2022-07-23T05:00:32;42.33;;;19.83;;
5414;SDS011;2730;51.512;7.504;2022-07-23T05:02:59;46.67;;;19.17;;
5414;SDS011;2730;51.512;7.504;2022-07-23T05:05:26;33.73;;;19.10;;
5414;SDS011;2730;51.512;7.504;2022-07-23T05:07:53;35.37;;;19.40;;
5414;SDS011;2730;51.512;7.504;2022-07-23T05:10:20;33.40;;;19.63;;
5414;SDS011;2730;51.512;7.504;2022-07-23T05:12:47;28.90;;;18.10;;
5414;SDS011;2730;51.512;7.504;2022-07-23T05:15:14;26.47;;;18.77;;
5414;SDS011;2730;51.512;7.504;2022-07-23T05:17:42;28.47;;;17.30;;
5414;SDS011;2730;51.512;7.504;2022-07-23T05:20:09;31.10;;;18.43;;
5414;SDS011;2730;51.512;7.504;2022-07-23T05:22:36;32.10;;;18.37;;
5414;SDS011;2730;51.512;7.504;2022-07-23T05:25:03;35.90;;;19.60;;
5414;SDS011;2730;51.512;7.504;2022-07-23T05:27:31;45.47;;;21.13;;
5414;SDS011;2730;51.512;7.504;2022-07-23T05:29:58;35.67;;;19.10;;
5414;SDS011;2730;51.512;7.504;2022-07-23T05:32:25;34.00;;;18.77;;
5414;SDS011;2730;51.512;7.504;2022-07-23T05:34:53;33.10;;;19.23;;
5414;SDS011;2730;51.512;7.504;2022-07-23T05:37:20;32.90;;;19.10;;
5414;SDS011;2730;51.512;7.504;2022-07-23T05:39:46;26.80;;;18.17;;
5414;SDS011;2730;51.512;7.504;2022-07-23T05:42:14;28.73;;;17.00;;
5414;SDS011;2730;51.512;7.504;2022-07-23T05:44:42;29.33;;;15.93;;
5414;SDS011;2730;51.512;7.504;2022-07-23T05:47:12;28.77;;;16.50;;
5414;SDS011;2730;51.512;7.504;2022-07-23T05:49:39;29.87;;;16.97;;
5414;SDS011;2730;51.512;7.504;2022-07-23T05:52:09;27.87;;;15.13;;
5414;SDS011;2730;51.512;7.504;2022-07-23T05:54:36;31.83;;;17.33;;
5414;SDS011;2730;51.512;7.504;2022-07-23T05:57:03;37.40;;;18.87;;
5414;SDS011;2730;51.512;7.504;2022-07-23T05:59:30;30.57;;;20.40;;
5414;SDS011;2730;51.512;7.504;2022-07-23T06:01:58;35.40;;;21.43;;
5414;SDS011;2730;51.512;7.504;2022-07-23T06:04:25;46.37;;;24.30;;
5414;SDS011;2730;51.512;7.504;2022-07-23T06:06:52;37.43;;;21.70;;
5414;SDS011;2730;51.512;7.504;2022-07-23T06:09:20;37.20;;;19.90;;
5414;SDS011;2730;51.512;7.504;2022-07-23T06:11:47;42.27;;;21.67;;
5414;SDS011;2730;51.512;7.504;2022-07-23T06:14:14;40.23;;;22.07;;
5414;SDS011;2730;51.512;7.504;2022-07-23T06:16:41;41.13;;;22.13;;
5414;SDS011;2730;51.512;7.504;2022-07-23T06:19:08;40.07;;;23.20;;
5414;SDS011;2730;51.512;7.504;2022-07-23T06:21:35;40.90;;;23.10;;
5414;SDS011;2730;51.512;7.504;2022-07-23T06:24:02;43.30;;;26.80;;
5414;SDS011;2730;51.512;7.504;2022-07-23T06:26:30;63.73;;;35.03;;
5414;SDS011;2730;51.512;7.504;2022-07-23T06:28:57;58.50;;;30.93;;
5414;SDS011;2730;51.512;7.504;2022-07-23T06:31:24;54.40;;;31.77;;
5414;SDS011;2730;51.512;7.504;2022-07-23T06:33:51;69.40;;;36.03;;
5414;SDS011;2730;51.512;7.504;2022-07-23T06:36:18;63.40;;;33.77;;
5414;SDS011;2730;51.512;7.504;2022-07-23T06:38:44;58.40;;;33.23;;
5414;SDS011;2730;51.512;7.504;2022-07-23T06:41:11;55.70;;;32.00;;
5414;SDS011;2730;51.512;7.504;2022-07-23T06:43:40;54.17;;;28.70;;
5414;SDS011;2730;51.512;7.504;2022-07-23T06:46:06;55.53;;;31.40;;
5414;SDS011;2730;51.512;7.504;2022-07-23T06:48:33;52.23;;;31.40;;
5414;SDS011;2730;51.512;7.504;2022-07-23T06:51:00;56.10;;;30.40;;
5414;SDS011;2730;51.512;7.504;2022-07-23T06:53:27;66.33;;;36.70;;
5414;SDS011;2730;51.512;7.504;2022-07-23T06:55:55;57.53;;;33.07;;
5414;SDS011;2730;51.512;7.504;2022-07-23T06:58:22;58.60;;;33.67;;
5414;SDS011;2730;51.512;7.504;2022-07-23T07:00:50;55.40;;;32.97;;
5414;SDS011;2730;51.512;7.504;2022-07-23T07:03:17;55.30;;;32.77;;
5414;SDS011;2730;51.512;7.504;2022-07-23T07:05:44;49.73;;;31.20;;
5414;SDS011;2730;51.512;7.504;2022-07-23T07:08:11;54.90;;;31.47;;
5414;SDS011;2730;51.512;7.504;2022-07-23T07:10:38;46.93;;;30.30;;
5414;SDS011;2730;51.512;7.504;2022-07-23T07:13:04;51.90;;;31.87;;
5414;SDS011;2730;51.512;7.504;2022-07-23T07:15:31;57.30;;;33.17;;
5414;SDS011;2730;51.512;7.504;2022-07-23T07:18:00;53.77;;;31.73;;
5414;SDS011;2730;51.512;7.504;2022-07-23T07:20:27;50.00;;;34.50;;
5414;SDS011;2730;51.512;7.504;2022-07-23T07:22:54;49.10;;;33.07;;
5414;SDS011;2730;51.512;7.504;2022-07-23T07:25:20;49.50;;;32.10;;
5414;SDS011;2730;51.512;7.504;2022-07-23T07:27:47;53.23;;;31.20;;
5414;SDS011;2730;51.512;7.504;2022-07-23T07:30:14;50.70;;;30.07;;
5414;SDS011;2730;51.512;7.504;2022-07-23T07:32:41;50.87;;;29.23;;
5414;SDS011;2730;51.512;7.504;2022-07-23T07:35:09;51.40;;;31.00;;
5414;SDS011;2730;51.512;7.504;2022-07-23T07:37:36;48.80;;;30.13;;
5414;SDS011;2730;51.512;7.504;2022-07-23T07:40:04;55.30;;;33.87;;
5414;SDS011;2730;51.512;7.504;2022-07-23T07:42:31;58.30;;;36.70;;
5414;SDS011;2730;51.512;7.504;2022-07-23T07:44:58;59.27;;;39.00;;
5414;SDS011;2730;51.512;7.504;2022-07-23T07:47:25;56.33;;;37.97;;
5414;SDS011;2730;51.512;7.504;2022-07-23T07:49:52;54.10;;;35.33;;
5414;SDS011;2730;51.512;7.504;2022-07-23T07:52:20;53.93;;;35.87;;
5414;SDS011;2730;51.512;7.504;2022-07-23T07:54:47;52.93;;;34.43;;
5414;SDS011;2730;51.512;7.504;2022-07-23T07:57:14;46.40;;;34.00;;
5414;SDS011;2730;51.512;7.504;2022-07-23T07:59:40;53.00;;;35.30;;
5414;SDS011;2730;51.512;7.504;2022-07-23T08:02:07;39.67;;;27.83;;
5414;SDS011;2730;51.512;7.504;2022-07-23T08:04:34;45.77;;;30.40;;
5414;SDS011;2730;51.512;7.504;2022-07-23T08:07:01;42.67;;;29.43;;
5414;SDS011;2730;51.512;7.504;2022-07-23T08:09:29;35.47;;;25.63;;
5414;SDS011;2730;51.512;7.504;2022-07-23T08:11:56;31.10;;;22.70;;
5414;SDS011;2730;51.512;7.504;2022-07-23T08:14:23;32.80;;;23.03;;
5414;SDS011;2730;51.512;7.504;2022-07-23T08:16:50;27.73;;;20.50;;
5414;SDS011;2730;51.512;7.504;2022-07-23T08:19:17;22.63;;;19.07;;
5414;SDS011;2730;51.512;7.504;2022-07-23T08:21:44;20.40;;;18.20;;
5414;SDS011;2730;51.512;7.504;2022-07-23T08:24:11;18.97;;;15.10;;
5414;SDS011;2730;51.512;7.504;2022-07-23T08:26:39;17.10;;;14.10;;
5414;SDS011;2730;51.512;7.504;2022-07-23T08:29:06;16.70;;;14.90;;
5414;SDS011;2730;51.512;7.504;2022-07-23T08:31:33;22.03;;;17.60;;
5414;SDS011;2730;51.512;7.504;2022-07-23T08:34:00;22.10;;;17.33;;
5414;SDS011;2730;51.512;7.504;2022-07-23T08:36:27;18.70;;;12.27;;
5414;SDS011;2730;51.512;7.504;2022-07-23T08:38:57;12.67;;;11.20;;
5414;SDS011;2730;51.512;7.504;2022-07-23T08:41:24;11.93;;;9.70;;
5414;SDS011;2730;51.512;7.504;2022-07-23T08:43:52;9.97;;;8.90;;
5414;SDS011;2730;51.512;7.504;2022-07-23T08:46:19;14.03;;;10.87;;
5414;SDS011;2730;51.512;7.504;2022-07-23T08:48:47;16.07;;;11.37;;
5414;SDS011;2730;51.512;7.504;2022-07-23T08:51:15;14.20;;;12.47;;
5414;SDS011;2730;51.512;7.504;2022-07-23T08:53:42;14.57;;;11.90;;
5414;SDS011;2730;51.512;7.504;2022-07-23T08:56:10;10.63;;;9.40;;
5414;SDS011;2730;51.512;7.504;2022-07-23T08:58:37;9.13;;;8.10;;
5414;SDS011;2730;51.512;7.504;2022-07-23T09:01:05;12.80;;;8.37;;
5414;SDS011;2730;51.512;7.504;2022-07-23T09:03:33;8.30;;;7.47;;
5414;SDS011;2730;51.512;7.504;2022-07-23T09:06:04;12.70;;;7.93;;
5414;SDS011;2730;51.512;7.504;2022-07-23T09:08:34;8.37;;;6.90;;
5414;SDS011;2730;51.512;7.504;2022-07-23T09:11:03;11.13;;;8.57;;
5414;SDS011;2730;51.512;7.504;2022-07-23T09:13:32;9.00;;;7.37;;
5414;SDS011;2730;51.512;7.504;2022-07-23T09:16:02;5.97;;;5.37;;
5414;SDS011;2730;51.512;7.504;2022-07-23T09:18:33;9.20;;;5.90;;
5414;SDS011;2730;51.512;7.504;2022-07-23T09:23:55;8.27;;;6.20;;
5414;SDS011;2730;51.512;7.504;2022-07-23T09:26:31;8.80;;;6.27;;
5414;SDS011;2730;51.512;7.504;2022-07-23T09:29:04;8.90;;;5.57;;
5414;SDS011;2730;51.512;7.504;2022-07-23T09:31:45;6.27;;;5.27;;
5414;SDS011;2730;51.512;7.504;2022-07-23T09:34:17;5.93;;;5.33;;
5414;SDS011;2730;51.512;7.504;2022-07-23T09:36:45;6.20;;;5.60;;
5414;SDS011;2730;51.512;7.504;2022-07-23T09:39:13;6.20;;;5.60;;
5414;SDS011;2730;51.512;7.504;2022-07-23T09:41:43;5.87;;;5.17;;
5414;SDS011;2730;51.512;7.504;2022-07-23T09:44:13;5.90;;;5.43;;
5414;SDS011;2730;51.512;7.504;2022-07-23T09:46:42;5.80;;;5.00;;
5414;SDS011;2730;51.512;7.504;2022-07-23T09:49:12;6.60;;;5.90;;
5414;SDS011;2730;51.512;7.504;2022-07-23T09:51:49;8.70;;;5.97;;
5414;SDS011;2730;51.512;7.504;2022-07-23T09:54:22;5.80;;;5.20;;
5414;SDS011;2730;51.512;7.504;2022-07-23T09:56:59;10.00;;;5.80;;
5414;SDS011;2730;51.512;7.504;2022-07-23T09:59:28;8.07;;;5.77;;
5414;SDS011;2730;51.512;7.504;2022-07-23T10:01:58;5.40;;;4.90;;
5414;SDS011;2730;51.512;7.504;2022-07-23T10:04:26;5.37;;;4.97;;
5414;SDS011;2730;51.512;7.504;2022-07-23T10:06:56;9.03;;;5.80;;
5414;SDS011;2730;51.512;7.504;2022-07-23T10:09:27;5.30;;;4.40;;
5414;SDS011;2730;51.512;7.504;2022-07-23T10:11:56;5.20;;;4.53;;
5414;SDS011;2730;51.512;7.504;2022-07-23T10:14:28;5.93;;;4.63;;
5414;SDS011;2730;51.512;7.504;2022-07-23T10:16:57;5.23;;;4.37;;
5414;SDS011;2730;51.512;7.504;2022-07-23T10:19:24;7.30;;;4.23;;
5414;SDS011;2730;51.512;7.504;2022-07-23T10:21:52;4.77;;;4.20;;
5414;SDS011;2730;51.512;7.504;2022-07-23T10:24:28;4.40;;;3.87;;
5414;SDS011;2730;51.512;7.504;2022-07-23T10:27:14;9.43;;;4.00;;
5414;SDS011;2730;51.512;7.504;2022-07-23T10:30:07;3.67;;;3.37;;
5414;SDS011;2730;51.512;7.504;2022-07-23T10:32:44;4.17;;;3.87;;
5414;SDS011;2730;51.512;7.504;2022-07-23T10:35:29;4.63;;;4.17;;
5414;SDS011;2730;51.512;7.504;2022-07-23T10:38:07;8.50;;;4.30;;
5414;SDS011;2730;51.512;7.504;2022-07-23T10:40:49;4.63;;;4.23;;
5414;SDS011;2730;51.512;7.504;2022-07-23T10:43:21;5.40;;;4.90;;
5414;SDS011;2730;51.512;7.504;2022-07-23T10:45:48;6.93;;;5.27;;
5414;SDS011;2730;51.512;7.504;2022-07-23T10:48:15;5.23;;;4.83;;
5414;SDS011;2730;51.512;7.504;2022-07-23T10:50:44;6.93;;;4.40;;
5414;SDS011;2730;51.512;7.504;2022-07-23T10:53:53;4.90;;;4.60;;
5414;SDS011;2730;51.512;7.504;2022-07-23T11:02:33;5.43;;;4.90;;
5414;SDS011;2730;51.512;7.504;2022-07-23T11:05:04;7.70;;;6.30;;
5414;SDS011;2730;51.512;7.504;2022-07-23T11:07:32;6.10;;;5.50;;
5414;SDS011;2730;51.512;7.504;2022-07-23T11:10:00;7.00;;;6.17;;
5414;SDS011;2730;51.512;7.504;2022-07-23T11:12:31;7.67;;;5.73;;
5414;SDS011;2730;51.512;7.504;2022-07-23T11:15:00;6.93;;;6.27;;
5414;SDS011;2730;51.512;7.504;2022-07-23T11:17:30;6.30;;;5.80;;
5414;SDS011;2730;51.512;7.504;2022-07-23T11:20:15;6.40;;;5.80;;
5414;SDS011;2730;51.512;7.504;2022-07-23T11:22:48;5.20;;;4.70;;
5414;SDS011;2730;51.512;7.504;2022-07-23T11:25:31;7.10;;;6.60;;
5414;SDS011;2730;51.512;7.504;2022-07-23T11:28:09;7.07;;;6.40;;
5414;SDS011;2730;51.512;7.504;2022-07-23T11:30:38;7.17;;;6.57;;
5414;SDS011;2730;51.512;7.504;2022-07-23T11:33:16;6.73;;;6.13;;
5414;SDS011;2730;51.512;7.504;2022-07-23T11:35:45;7.53;;;6.73;;
5414;SDS011;2730;51.512;7.504;2022-07-23T11:38:15;6.30;;;5.63;;
5414;SDS011;2730;51.512;7.504;2022-07-23T11:40:45;7.53;;;6.93;;
5414;SDS011;2730;51.512;7.504;2022-07-23T11:43:12;7.63;;;5.40;;
5414;SDS011;2730;51.512;7.504;2022-07-23T11:45:40;6.57;;;5.90;;
5414;SDS011;2730;51.512;7.504;2022-07-23T11:48:09;6.17;;;5.53;;
5414;SDS011;2730;51.512;7.504;2022-07-23T11:50:43;8.83;;;6.40;;
5414;SDS011;2730;51.512;7.504;2022-07-23T11:53:10;7.87;;;6.37;;
5414;SDS011;2730;51.512;7.504;2022-07-23T11:55:37;7.33;;;6.63;;
5414;SDS011;2730;51.512;7.504;2022-07-23T11:58:06;5.53;;;5.20;;
5414;SDS011;2730;51.512;7.504;2022-07-23T12:00:33;6.40;;;5.67;;
5414;SDS011;2730;51.512;7.504;2022-07-23T12:03:01;6.07;;;5.57;;
5414;SDS011;2730;51.512;7.504;2022-07-23T12:05:30;6.23;;;5.83;;
5414;SDS011;2730;51.512;7.504;2022-07-23T12:07:59;8.73;;;7.33;;
5414;SDS011;2730;51.512;7.504;2022-07-23T12:10:27;9.50;;;6.30;;
5414;SDS011;2730;51.512;7.504;2022-07-23T12:12:56;7.17;;;5.20;;
5414;SDS011;2730;51.512;7.504;2022-07-23T12:15:26;6.10;;;5.60;;
5414;SDS011;2730;51.512;7.504;2022-07-23T12:17:56;4.80;;;4.50;;
5414;SDS011;2730;51.512;7.504;2022-07-23T12:20:24;4.77;;;4.40;;
5414;SDS011;2730;51.512;7.504;2022-07-23T12:22:55;4.67;;;3.73;;
5414;SDS011;2730;51.512;7.504;2022-07-23T12:25:25;6.40;;;3.90;;
5414;SDS011;2730;51.512;7.504;2022-07-23T12:28:02;4.00;;;3.70;;
5414;SDS011;2730;51.512;7.504;2022-07-23T12:30:33;4.43;;;4.10;;
5414;SDS011;2730;51.512;7.504;2022-07-23T12:33:03;3.93;;;3.63;;
5414;SDS011;2730;51.512;7.504;2022-07-23T12:35:32;4.13;;;3.73;;
5414;SDS011;2730;51.512;7.504;2022-07-23T12:38:02;6.67;;;3.97;;
5414;SDS011;2730;51.512;7.504;2022-07-23T12:40:30;4.13;;;3.83;;
5414;SDS011;2730;51.512;7.504;2022-07-23T12:42:59;6.53;;;4.97;;
5414;SDS011;2730;51.512;7.504;2022-07-23T12:45:28;5.90;;;4.80;;
5414;SDS011;2730;51.512;7.504;2022-07-23T12:48:14;4.57;;;4.13;;
5414;SDS011;2730;51.512;7.504;2022-07-23T12:50:44;4.00;;;3.77;;
5414;SDS011;2730;51.512;7.504;2022-07-23T12:53:16;4.17;;;3.77;;
5414;SDS011;2730;51.512;7.504;2022-07-23T12:55:44;4.23;;;3.00;;
5414;SDS011;2730;51.512;7.504;2022-07-23T12:58:14;3.73;;;3.30;;
5414;SDS011;2730;51.512;7.504;2022-07-23T13:00:57;6.03;;;4.10;;
5414;SDS011;2730;51.512;7.504;2022-07-23T13:03:39;6.30;;;3.90;;
5414;SDS011;2730;51.512;7.504;2022-07-23T13:06:07;5.40;;;3.93;;
5414;SDS011;2730;51.512;7.504;2022-07-23T13:08:36;8.27;;;3.20;;
5414;SDS011;2730;51.512;7.504;2022-07-23T13:11:05;4.43;;;3.10;;
5414;SDS011;2730;51.512;7.504;2022-07-23T13:13:33;4.17;;;3.77;;
5414;SDS011;2730;51.512;7.504;2022-07-23T13:16:02;3.93;;;3.27;;
5414;SDS011;2730;51.512;7.504;2022-07-23T13:18:30;2.83;;;2.63;;
5414;SDS011;2730;51.512;7.504;2022-07-23T13:20:57;4.67;;;3.93;;
5414;SDS011;2730;51.512;7.504;2022-07-23T13:23:24;7.03;;;2.20;;
5414;SDS011;2730;51.512;7.504;2022-07-23T13:25:51;3.50;;;3.30;;
5414;SDS011;2730;51.512;7.504;2022-07-23T13:28:19;3.70;;;2.77;;
5414;SDS011;2730;51.512;7.504;2022-07-23T13:30:47;2.33;;;2.23;;
5414;SDS011;2730;51.512;7.504;2022-07-23T13:33:17;2.57;;;2.30;;
5414;SDS011;2730;51.512;7.504;2022-07-23T13:35:45;2.50;;;2.40;;
5414;SDS011;2730;51.512;7.504;2022-07-23T13:38:12;2.60;;;2.50;;
5414;SDS011;2730;51.512;7.504;2022-07-23T13:40:40;2.43;;;2.33;;
5414;SDS011;2730;51.512;7.504;2022-07-23T13:43:09;3.37;;;2.53;;
5414;SDS011;2730;51.512;7.504;2022-07-23T13:45:37;3.30;;;2.10;;
5414;SDS011;2730;51.512;7.504;2022-07-23T13:48:05;3.83;;;2.70;;
5414;SDS011;2730;51.512;7.504;2022-07-23T13:50:33;2.70;;;2.50;;
5414;SDS011;2730;51.512;7.504;2022-07-23T13:53:02;5.13;;;2.47;;
5414;SDS011;2730;51.512;7.504;2022-07-23T13:55:29;4.03;;;2.23;;
5414;SDS011;2730;51.512;7.504;2022-07-23T13:57:56;3.13;;;2.40;;
5414;SDS011;2730;51.512;7.504;2022-07-23T14:00:23;6.50;;;2.17;;
5414;SDS011;2730;51.512;7.504;2022-07-23T14:02:51;2.60;;;2.40;;
5414;SDS011;2730;51.512;7.504;2022-07-23T14:05:18;3.63;;;3.00;;
5414;SDS011;2730;51.512;7.504;2022-07-23T14:07:47;3.40;;;3.10;;
5414;SDS011;2730;51.512;7.504;2022-07-23T14:10:15;3.57;;;2.73;;
5414;SDS011;2730;51.512;7.504;2022-07-23T14:12:43;2.60;;;2.40;;
5414;SDS011;2730;51.512;7.504;2022-07-23T14:15:10;2.90;;;2.70;;
5414;SDS011;2730;51.512;7.504;2022-07-23T14:17:37;2.70;;;2.23;;
5414;SDS011;2730;51.512;7.504;2022-07-23T14:20:05;3.43;;;2.43;;
5414;SDS011;2730;51.512;7.504;2022-07-23T14:22:33;3.30;;;2.70;;
5414;SDS011;2730;51.512;7.504;2022-07-23T14:25:01;2.50;;;2.30;;
5414;SDS011;2730;51.512;7.504;2022-07-23T14:27:29;2.90;;;2.50;;
5414;SDS011;2730;51.512;7.504;2022-07-23T14:29:56;3.20;;;2.90;;
5414;SDS011;2730;51.512;7.504;2022-07-23T14:32:23;2.60;;;2.40;;
5414;SDS011;2730;51.512;7.504;2022-07-23T14:34:50;3.73;;;3.07;;
5414;SDS011;2730;51.512;7.504;2022-07-23T14:37:17;2.83;;;2.50;;
5414;SDS011;2730;51.512;7.504;2022-07-23T14:39:45;4.20;;;3.30;;
5414;SDS011;2730;51.512;7.504;2022-07-23T14:42:13;2.90;;;2.43;;
5414;SDS011;2730;51.512;7.504;2022-07-23T14:44:40;2.23;;;2.00;;
5414;SDS011;2730;51.512;7.504;2022-07-23T14:47:08;2.80;;;2.60;;
5414;SDS011;2730;51.512;7.504;2022-07-23T14:49:35;3.17;;;2.87;;
5414;SDS011;2730;51.512;7.504;2022-07-23T14:52:02;2.90;;;2.33;;
5414;SDS011;2730;51.512;7.504;2022-07-23T14:54:30;2.87;;;2.67;;
5414;SDS011;2730;51.512;7.504;2022-07-23T14:56:57;2.97;;;2.67;;
5414;SDS011;2730;51.512;7.504;2022-07-23T14:59:27;3.00;;;2.77;;
5414;SDS011;2730;51.512;7.504;2022-07-23T15:01:53;2.60;;;2.50;;
5414;SDS011;2730;51.512;7.504;2022-07-23T15:04:20;3.17;;;3.00;;
5414;SDS011;2730;51.512;7.504;2022-07-23T15:06:47;2.63;;;2.43;;
5414;SDS011;2730;51.512;7.504;2022-07-23T15:09:14;2.93;;;2.73;;
5414;SDS011;2730;51.512;7.504;2022-07-23T15:11:41;3.43;;;3.10;;
5414;SDS011;2730;51.512;7.504;2022-07-23T15:14:08;3.73;;;3.43;;
5414;SDS011;2730;51.512;7.504;2022-07-23T15:16:36;5.20;;;3.40;;
5414;SDS011;2730;51.512;7.504;2022-07-23T15:19:03;6.03;;;2.67;;
5414;SDS011;2730;51.512;7.504;2022-07-23T15:21:30;3.47;;;2.73;;
5414;SDS011;2730;51.512;7.504;2022-07-23T15:23:57;2.63;;;2.53;;
5414;SDS011;2730;51.512;7.504;2022-07-23T15:26:25;5.87;;;2.83;;
5414;SDS011;2730;51.512;7.504;2022-07-23T15:28:52;3.87;;;2.97;;
5414;SDS011;2730;51.512;7.504;2022-07-23T15:31:19;4.73;;;2.83;;
5414;SDS011;2730;51.512;7.504;2022-07-23T15:33:47;3.63;;;3.00;;
5414;SDS011;2730;51.512;7.504;2022-07-23T15:36:14;3.20;;;3.00;;
5414;SDS011;2730;51.512;7.504;2022-07-23T15:38:42;3.13;;;2.93;;
5414;SDS011;2730;51.512;7.504;2022-07-23T15:41:09;3.03;;;2.73;;
5414;SDS011;2730;51.512;7.504;2022-07-23T15:43:36;5.87;;;3.03;;
5414;SDS011;2730;51.512;7.504;2022-07-23T15:46:03;3.93;;;2.80;;
5414;SDS011;2730;51.512;7.504;2022-07-23T15:48:30;3.03;;;2.73;;
5414;SDS011;2730;51.512;7.504;2022-07-23T15:51:00;2.60;;;2.50;;
5414;SDS011;2730;51.512;7.504;2022-07-23T15:53:27;2.83;;;2.73;;
5414;SDS011;2730;51.512;7.504;2022-07-23T15:55:54;3.43;;;2.70;;
5414;SDS011;2730;51.512;7.504;2022-07-23T15:58:21;3.17;;;2.97;;
5414;SDS011;2730;51.512;7.504;2022-07-23T16:00:48;3.20;;;2.90;;
5414;SDS011;2730;51.512;7.504;2022-07-23T16:03:15;4.27;;;3.43;;
5414;SDS011;2730;51.512;7.504;2022-07-23T16:05:42;5.63;;;3.07;;
5414;SDS011;2730;51.512;7.504;2022-07-23T16:08:10;5.03;;;2.80;;
5414;SDS011;2730;51.512;7.504;2022-07-23T16:10:37;3.30;;;3.10;;
5414;SDS011;2730;51.512;7.504;2022-07-23T16:13:04;3.13;;;2.67;;
5414;SDS011;2730;51.512;7.504;2022-07-23T16:15:31;3.43;;;3.13;;
5414;SDS011;2730;51.512;7.504;2022-07-23T16:17:58;7.33;;;3.07;;
5414;SDS011;2730;51.512;7.504;2022-07-23T16:20:24;3.37;;;3.07;;
5414;SDS011;2730;51.512;7.504;2022-07-23T16:22:52;5.30;;;3.00;;
5414;SDS011;2730;51.512;7.504;2022-07-23T16:25:20;5.43;;;3.50;;
5414;SDS011;2730;51.512;7.504;2022-07-23T16:27:47;4.80;;;2.90;;
5414;SDS011;2730;51.512;7.504;2022-07-23T16:30:14;4.50;;;2.87;;
5414;SDS011;2730;51.512;7.504;2022-07-23T16:32:41;3.40;;;3.20;;
5414;SDS011;2730;51.512;7.504;2022-07-23T16:35:08;6.03;;;3.10;;
5414;SDS011;2730;51.512;7.504;2022-07-23T16:37:35;3.33;;;2.90;;
5414;SDS011;2730;51.512;7.504;2022-07-23T16:40:03;3.13;;;2.83;;
5414;SDS011;2730;51.512;7.504;2022-07-23T16:42:32;3.30;;;2.97;;
5414;SDS011;2730;51.512;7.504;2022-07-23T16:44:59;2.83;;;2.63;;
5414;SDS011;2730;51.512;7.504;2022-07-23T16:47:26;3.73;;;3.10;;
5414;SDS011;2730;51.512;7.504;2022-07-23T16:49:53;3.33;;;3.13;;
5414;SDS011;2730;51.512;7.504;2022-07-23T16:52:20;7.23;;;3.57;;
5414;SDS011;2730;51.512;7.504;2022-07-23T16:54:47;3.90;;;3.60;;
5414;SDS011;2730;51.512;7.504;2022-07-23T16:57:14;4.90;;;3.03;;
5414;SDS011;2730;51.512;7.504;2022-07-23T16:59:43;3.90;;;3.27;;
5414;SDS011;2730;51.512;7.504;2022-07-23T17:02:10;4.13;;;3.50;;
5414;SDS011;2730;51.512;7.504;2022-07-23T17:04:37;3.33;;;3.13;;
5414;SDS011;2730;51.512;7.504;2022-07-23T17:07:04;2.97;;;2.77;;
5414;SDS011;2730;51.512;7.504;2022-07-23T17:09:31;4.87;;;3.13;;
5414;SDS011;2730;51.512;7.504;2022-07-23T17:11:59;3.37;;;3.10;;
5414;SDS011;2730;51.512;7.504;2022-07-23T17:14:27;3.30;;;3.00;;
5414;SDS011;2730;51.512;7.504;2022-07-23T17:16:55;3.50;;;2.73;;
5414;SDS011;2730;51.512;7.504;2022-07-23T17:19:23;3.00;;;2.80;;
5414;SDS011;2730;51.512;7.504;2022-07-23T17:21:50;3.00;;;2.80;;
5414;SDS011;2730;51.512;7.504;2022-07-23T17:24:16;3.63;;;3.03;;
5414;SDS011;2730;51.512;7.504;2022-07-23T17:26:43;4.40;;;3.60;;
5414;SDS011;2730;51.512;7.504;2022-07-23T17:31:39;5.20;;;3.17;;
5414;SDS011;2730;51.512;7.504;2022-07-23T17:34:08;3.90;;;3.43;;
5414;SDS011;2730;51.512;7.504;2022-07-23T17:36:35;3.73;;;3.17;;
5414;SDS011;2730;51.512;7.504;2022-07-23T17:39:02;7.40;;;3.03;;
5414;SDS011;2730;51.512;7.504;2022-07-23T17:41:29;4.73;;;3.33;;
5414;SDS011;2730;51.512;7.504;2022-07-23T17:43:56;3.00;;;2.80;;
5414;SDS011;2730;51.512;7.504;2022-07-23T17:46:24;9.43;;;3.30;;
5414;SDS011;2730;51.512;7.504;2022-07-23T17:48:51;3.40;;;3.03;;
5414;SDS011;2730;51.512;7.504;2022-07-23T17:51:19;3.30;;;3.10;;
5414;SDS011;2730;51.512;7.504;2022-07-23T17:53:47;4.73;;;3.47;;
5414;SDS011;2730;51.512;7.504;2022-07-23T17:56:14;5.33;;;3.60;;
5414;SDS011;2730;51.512;7.504;2022-07-23T17:58:40;3.00;;;2.73;;
5414;SDS011;2730;51.512;7.504;2022-07-23T18:01:07;3.17;;;2.80;;
5414;SDS011;2730;51.512;7.504;2022-07-23T18:03:34;3.23;;;3.03;;
5414;SDS011;2730;51.512;7.504;2022-07-23T18:06:02;4.23;;;3.90;;
5414;SDS011;2730;51.512;7.504;2022-07-23T18:08:30;5.23;;;2.80;;
5414;SDS011;2730;51.512;7.504;2022-07-23T18:10:57;3.70;;;3.40;;
5414;SDS011;2730;51.512;7.504;2022-07-23T18:13:24;4.40;;;3.13;;
5414;SDS011;2730;51.512;7.504;2022-07-23T18:15:51;3.40;;;2.87;;
5414;SDS011;2730;51.512;7.504;2022-07-23T18:18:17;5.40;;;3.43;;
5414;SDS011;2730;51.512;7.504;2022-07-23T18:20:44;5.30;;;3.27;;
5414;SDS011;2730;51.512;7.504;2022-07-23T18:23:12;4.17;;;3.77;;
5414;SDS011;2730;51.512;7.504;2022-07-23T18:25:40;3.63;;;3.20;;
5414;SDS011;2730;51.512;7.504;2022-07-23T18:28:07;3.77;;;3.30;;
5414;SDS011;2730;51.512;7.504;2022-07-23T18:30:34;3.23;;;3.03;;
5414;SDS011;2730;51.512;7.504;2022-07-23T18:33:01;3.53;;;3.23;;
5414;SDS011;2730;51.512;7.504;2022-07-23T18:35:28;5.57;;;3.93;;
5414;SDS011;2730;51.512;7.504;2022-07-23T18:37:55;5.80;;;3.50;;
5414;SDS011;2730;51.512;7.504;2022-07-23T18:40:22;7.47;;;3.77;;
5414;SDS011;2730;51.512;7.504;2022-07-23T18:42:50;5.27;;;3.30;;
5414;SDS011;2730;51.512;7.504;2022-07-23T18:45:20;4.93;;;3.53;;
5414;SDS011;2730;51.512;7.504;2022-07-23T18:47:47;3.30;;;3.10;;
5414;SDS011;2730;51.512;7.504;2022-07-23T18:50:14;6.83;;;3.70;;
5414;SDS011;2730;51.512;7.504;2022-07-23T18:52:41;5.50;;;3.17;;
5414;SDS011;2730;51.512;7.504;2022-07-23T18:55:08;3.77;;;3.43;;
5414;SDS011;2730;51.512;7.504;2022-07-23T18:57:35;6.30;;;3.73;;
5414;SDS011;2730;51.512;7.504;2022-07-23T19:00:04;3.17;;;2.97;;
5414;SDS011;2730;51.512;7.504;2022-07-23T19:02:32;4.87;;;3.40;;
5414;SDS011;2730;51.512;7.504;2022-07-23T19:04:59;4.00;;;3.07;;
5414;SDS011;2730;51.512;7.504;2022-07-23T19:07:26;3.37;;;2.70;;
5414;SDS011;2730;51.512;7.504;2022-07-23T19:09:53;7.03;;;3.60;;
5414;SDS011;2730;51.512;7.504;2022-07-23T19:12:20;4.60;;;4.03;;
5414;SDS011;2730;51.512;7.504;2022-07-23T19:14:47;4.10;;;3.77;;
5414;SDS011;2730;51.512;7.504;2022-07-23T19:17:15;3.80;;;3.50;;
5414;SDS011;2730;51.512;7.504;2022-07-23T19:19:42;4.10;;;3.73;;
5414;SDS011;2730;51.512;7.504;2022-07-23T19:22:09;4.97;;;3.40;;
5414;SDS011;2730;51.512;7.504;2022-07-23T19:24:36;3.50;;;3.20;;
5414;SDS011;2730;51.512;7.504;2022-07-23T19:27:03;4.67;;;3.20;;
5414;SDS011;2730;51.512;7.504;2022-07-23T19:29:30;3.43;;;3.13;;
5414;SDS011;2730;51.512;7.504;2022-07-23T19:32:00;5.43;;;4.40;;
5414;SDS011;2730;51.512;7.504;2022-07-23T19:34:28;3.40;;;3.20;;
5414;SDS011;2730;51.512;7.504;2022-07-23T19:36:55;3.20;;;3.00;;
5414;SDS011;2730;51.512;7.504;2022-07-23T19:39:23;4.80;;;3.43;;
5414;SDS011;2730;51.512;7.504;2022-07-23T19:41:50;5.70;;;3.80;;
5414;SDS011;2730;51.512;7.504;2022-07-23T19:44:17;4.30;;;3.20;;
5414;SDS011;2730;51.512;7.504;2022-07-23T19:46:44;3.53;;;3.33;;
5414;SDS011;2730;51.512;7.504;2022-07-23T19:49:11;3.40;;;3.10;;
5414;SDS011;2730;51.512;7.504;2022-07-23T19:51:39;5.03;;;3.57;;
5414;SDS011;2730;51.512;7.504;2022-07-23T19:54:06;4.50;;;2.90;;
5414;SDS011;2730;51.512;7.504;2022-07-23T19:56:32;4.20;;;3.80;;
5414;SDS011;2730;51.512;7.504;2022-07-23T19:58:59;4.50;;;4.10;;
5414;SDS011;2730;51.512;7.504;2022-07-23T20:01:26;4.57;;;3.53;;
5414;SDS011;2730;51.512;7.504;2022-07-23T20:03:53;4.60;;;3.97;;
5414;SDS011;2730;51.512;7.504;2022-07-23T20:06:20;9.30;;;4.00;;
5414;SDS011;2730;51.512;7.504;2022-07-23T20:08:48;9.47;;;4.43;;
5414;SDS011;2730;51.512;7.504;2022-07-23T20:11:15;10.10;;;5.80;;
5414;SDS011;2730;51.512;7.504;2022-07-23T20:13:41;3.63;;;3.30;;
5414;SDS011;2730;51.512;7.504;2022-07-23T20:16:08;8.00;;;3.60;;
5414;SDS011;2730;51.512;7.504;2022-07-23T20:18:35;4.83;;;3.23;;
5414;SDS011;2730;51.512;7.504;2022-07-23T20:21:02;3.73;;;3.23;;
5414;SDS011;2730;51.512;7.504;2022-07-23T20:23:29;6.87;;;3.83;;
5414;SDS011;2730;51.512;7.504;2022-07-23T20:25:57;3.93;;;3.30;;